Search for the current weather situation

Metar

Metar
TNCM 220000Z 08008KT 040V120 9999 FEW021 26/20 Q1017 A3004 NOSIG
Decoded Metar

TAF

TAF
TNCM 220000Z 08008KT 040V120 9999 FEW021 26/20 Q1017 A3004 NOSIG
Decoded TAF
Top